createdAt,value
2017-07-25T00:00:31.440Z,0
2017-07-25T00:01:41.467Z,0
2017-07-25T00:02:51.817Z,0
2017-07-25T00:04:02.217Z,0
2017-07-25T00:05:12.591Z,0
2017-07-25T00:06:22.986Z,0
2017-07-25T00:07:33.344Z,0
2017-07-25T00:08:43.680Z,0
2017-07-25T00:09:54.022Z,0
2017-07-25T00:11:04.044Z,0
2017-07-25T00:12:14.431Z,0
2017-07-25T00:13:24.770Z,0
2017-07-25T00:14:35.120Z,0
2017-07-25T00:15:45.475Z,0
2017-07-25T00:16:55.840Z,0
2017-07-25T00:18:05.865Z,0
2017-07-25T00:19:15.580Z,0
2017-07-25T00:20:25.612Z,0
2017-07-25T00:21:35.645Z,0
2017-07-25T00:22:45.679Z,0
2017-07-25T00:23:56.021Z,0
2017-07-25T00:25:06.384Z,0
2017-07-25T00:26:16.735Z,0
2017-07-25T00:27:26.773Z,0
2017-07-25T00:28:36.799Z,0
2017-07-25T00:29:47.136Z,0
2017-07-25T00:30:57.492Z,0
2017-07-25T00:32:07.846Z,0
2017-07-25T00:33:18.187Z,0
2017-07-25T00:34:28.529Z,0
2017-07-25T00:35:38.566Z,0
2017-07-25T00:36:48.598Z,0
2017-07-25T00:37:58.930Z,0
2017-07-25T00:39:08.974Z,0
2017-07-25T00:40:19.341Z,0
2017-07-25T00:41:29.373Z,0
2017-07-25T00:42:39.717Z,0
2017-07-25T00:43:50.060Z,0
2017-07-25T00:45:00.415Z,0
2017-07-25T00:46:10.441Z,0
2017-07-25T00:47:20.519Z,0
2017-07-25T00:48:30.931Z,0
2017-07-25T00:49:41.283Z,0
2017-07-25T00:50:51.619Z,0
2017-07-25T00:52:01.965Z,0
2017-07-25T00:53:12.345Z,0
2017-07-25T00:54:22.702Z,0
2017-07-25T00:55:32.728Z,0
2017-07-25T00:56:42.764Z,0
2017-07-25T00:57:53.105Z,0
2017-07-25T00:59:03.457Z,0
2017-07-25T01:00:13.808Z,0
2017-07-25T01:01:23.841Z,0
2017-07-25T01:02:34.193Z,0
2017-07-25T01:03:44.529Z,0
2017-07-25T01:04:54.875Z,0
2017-07-25T01:06:04.909Z,0
2017-07-25T01:07:15.259Z,0
2017-07-25T01:08:25.595Z,0
2017-07-25T01:09:35.946Z,0
2017-07-25T01:10:46.342Z,0
2017-07-25T01:11:56.666Z,0
2017-07-25T01:13:06.999Z,0
2017-07-25T01:14:17.353Z,0
2017-07-25T01:15:27.396Z,0
2017-07-25T01:16:37.430Z,0
2017-07-25T01:17:47.928Z,0
2017-07-25T01:18:57.945Z,0
2017-07-25T01:20:08.299Z,0
2017-07-25T01:21:18.327Z,0
2017-07-25T01:22:28.734Z,0
2017-07-25T01:23:39.073Z,0
2017-07-25T01:24:49.099Z,0
2017-07-25T01:25:59.423Z,0
2017-07-25T01:27:09.472Z,0
2017-07-25T01:28:19.856Z,0
2017-07-25T01:29:29.882Z,0
2017-07-25T01:30:39.913Z,0
2017-07-25T01:31:49.954Z,0
2017-07-25T01:32:59.999Z,0
2017-07-25T01:34:10.384Z,0
2017-07-25T01:35:20.726Z,0
2017-07-25T01:36:31.106Z,0
2017-07-25T01:37:41.145Z,0
2017-07-25T01:38:51.492Z,0
2017-07-25T01:40:01.840Z,0
2017-07-25T01:41:12.191Z,0
2017-07-25T01:42:22.534Z,0
2017-07-25T01:43:32.561Z,0
2017-07-25T01:44:42.284Z,0
2017-07-25T01:45:52.322Z,0
2017-07-25T01:47:02.360Z,0
2017-07-25T01:48:12.716Z,0
2017-07-25T01:49:23.062Z,0
2017-07-25T01:50:32.782Z,0
2017-07-25T01:51:43.137Z,0
2017-07-25T01:52:53.477Z,0
2017-07-25T01:54:03.507Z,0
2017-07-25T01:55:13.616Z,0
2017-07-25T01:56:23.341Z,0
2017-07-25T01:57:33.723Z,0
2017-07-25T01:58:44.065Z,0
2017-07-25T01:59:54.395Z,0
2017-07-25T02:01:04.733Z,0
2017-07-25T02:02:15.059Z,0
2017-07-25T02:03:25.158Z,0
2017-07-25T02:04:35.502Z,0
2017-07-25T02:05:45.542Z,0
2017-07-25T02:06:55.900Z,0
2017-07-25T02:08:06.241Z,0
2017-07-25T02:09:16.647Z,0
2017-07-25T02:10:26.701Z,0
2017-07-25T02:11:36.727Z,0
2017-07-25T02:12:47.075Z,0
2017-07-25T02:13:57.409Z,0
2017-07-25T02:15:07.814Z,0
2017-07-25T02:16:18.163Z,0
2017-07-25T02:17:28.515Z,0
2017-07-25T02:18:38.523Z,0
2017-07-25T02:19:48.873Z,0
2017-07-25T02:20:58.954Z,0
2017-07-25T02:22:09.307Z,0
2017-07-25T02:23:19.644Z,0
2017-07-25T02:24:29.981Z,0
2017-07-25T02:25:40.332Z,0
2017-07-25T02:26:50.721Z,0
2017-07-25T02:28:01.059Z,0
2017-07-25T02:29:11.411Z,0
2017-07-25T02:30:21.757Z,0
2017-07-25T02:31:32.100Z,0
2017-07-25T02:32:42.185Z,0
2017-07-25T02:33:52.520Z,0
2017-07-25T02:35:02.852Z,0
2017-07-25T02:36:13.202Z,0
2017-07-25T02:37:23.220Z,0
2017-07-25T02:38:33.623Z,0
2017-07-25T02:39:43.655Z,0
2017-07-25T02:40:53.996Z,0
2017-07-25T02:42:04.330Z,0
2017-07-25T02:43:14.361Z,0
2017-07-25T02:44:24.767Z,0
2017-07-25T02:45:34.816Z,0
2017-07-25T02:46:45.165Z,0
2017-07-25T02:47:55.531Z,0
2017-07-25T02:49:05.562Z,0
2017-07-25T02:50:15.909Z,0
2017-07-25T02:51:26.271Z,0
2017-07-25T02:52:36.298Z,0
2017-07-25T02:53:46.334Z,4
2017-07-25T02:54:56.040Z,4
2017-07-25T02:56:06.409Z,0
2017-07-25T02:57:16.449Z,4
2017-07-25T02:58:26.788Z,4
2017-07-25T02:59:37.122Z,8
2017-07-25T03:00:47.466Z,4
2017-07-25T03:01:57.529Z,8
2017-07-25T03:33:19.893Z,200
2017-07-25T03:34:30.232Z,212
2017-07-25T03:35:40.260Z,232
2017-07-25T03:36:50.306Z,248
2017-07-25T03:38:00.335Z,268
2017-07-25T03:39:10.421Z,292
2017-07-25T03:40:20.774Z,320
2017-07-25T03:41:30.807Z,352
2017-07-25T03:42:41.131Z,392
2017-07-25T03:43:51.468Z,424
2017-07-25T03:45:01.798Z,460
2017-07-25T03:46:12.138Z,492
2017-07-25T03:47:22.482Z,520
2017-07-25T03:48:32.844Z,556
2017-07-25T03:49:43.181Z,596
2017-07-25T03:50:53.567Z,636
2017-07-25T03:52:03.908Z,684
2017-07-25T03:53:14.246Z,732
2017-07-25T03:54:24.591Z,784
2017-07-25T03:55:34.944Z,836
2017-07-25T03:56:45.575Z,888
2017-07-25T03:57:55.913Z,948
2017-07-25T03:59:06.257Z,1020
2017-07-25T04:00:16.291Z,1092
2017-07-25T04:01:26.632Z,1172
2017-07-25T04:02:37.020Z,1240
2017-07-25T04:03:47.077Z,1284
2017-07-25T04:04:57.413Z,1336
2017-07-25T04:06:07.133Z,1400
2017-07-25T04:07:17.470Z,1476
2017-07-25T04:08:27.872Z,1548
2017-07-25T04:09:38.244Z,1612
2017-07-25T04:10:48.588Z,1664
2017-07-25T04:11:58.615Z,1716
2017-07-25T04:13:08.973Z,1772
2017-07-25T04:14:19.367Z,1844
2017-07-25T04:15:29.711Z,1940
2017-07-25T04:16:40.065Z,2072
2017-07-25T04:17:50.116Z,2232
2017-07-25T04:19:00.468Z,2408
2017-07-25T04:20:10.820Z,2576
2017-07-25T04:21:21.176Z,2724
2017-07-25T04:22:31.548Z,2856
2017-07-25T04:23:41.571Z,2956
2017-07-25T04:24:51.931Z,3076
2017-07-25T04:26:02.278Z,3196
2017-07-25T04:27:12.319Z,3204
2017-07-25T04:28:22.674Z,3132
2017-07-25T04:29:33.030Z,3056
2017-07-25T04:30:43.381Z,3064
2017-07-25T04:31:53.151Z,3136
2017-07-25T04:33:03.198Z,3248
2017-07-25T04:34:13.565Z,3388
2017-07-25T04:35:23.583Z,3280
2017-07-25T04:36:33.926Z,3132
2017-07-25T04:37:44.342Z,3120
2017-07-25T04:38:54.388Z,3180
2017-07-25T04:40:04.434Z,3284
2017-07-25T04:41:14.785Z,3568
2017-07-25T04:42:24.828Z,7308
2017-07-25T04:43:35.207Z,10492
2017-07-25T04:44:45.557Z,10764
2017-07-25T04:45:55.918Z,5568
2017-07-25T04:47:06.254Z,4904
2017-07-25T04:48:16.587Z,7460
2017-07-25T04:49:27.009Z,5128
2017-07-25T04:50:37.365Z,4276
2017-07-25T04:51:47.707Z,5152
2017-07-25T04:52:58.036Z,10740
2017-07-25T04:54:08.386Z,9628
2017-07-25T04:55:18.778Z,12192
2017-07-25T04:56:28.824Z,13852
2017-07-25T04:57:39.161Z,13960
2017-07-25T04:58:49.117Z,14304
2017-07-25T04:59:59.450Z,14560
2017-07-25T05:01:09.481Z,13912
2017-07-25T05:02:19.834Z,13940
2017-07-25T05:03:30.167Z,12860
2017-07-25T05:04:40.207Z,13560
2017-07-25T05:05:50.240Z,13916
2017-07-25T05:07:00.635Z,14624
2017-07-25T05:08:10.668Z,13372
2017-07-25T05:09:21.014Z,12132
2017-07-25T05:10:31.042Z,12412
2017-07-25T05:11:41.412Z,12748
2017-07-25T05:12:51.495Z,14976
2017-07-25T05:14:01.520Z,14976
2017-07-25T05:15:11.853Z,14504
2017-07-25T05:16:22.206Z,14108
2017-07-25T05:17:32.556Z,15328
2017-07-25T05:18:42.912Z,15360
2017-07-25T05:19:53.254Z,15264
2017-07-25T05:21:03.594Z,14816
2017-07-25T05:22:13.945Z,14976
2017-07-25T05:23:24.316Z,14308
2017-07-25T05:24:34.714Z,13384
2017-07-25T05:25:45.064Z,13288
2017-07-25T05:26:55.102Z,11836
2017-07-25T05:28:05.436Z,11084
2017-07-25T05:29:15.783Z,9888
2017-07-25T05:30:25.891Z,11968
2017-07-25T05:31:36.227Z,14004
2017-07-25T05:32:46.580Z,14588
2017-07-25T05:33:56.925Z,13820
2017-07-25T05:35:06.950Z,13380
2017-07-25T05:36:17.289Z,10672
2017-07-25T05:37:27.026Z,10940
2017-07-25T05:38:37.060Z,8920
2017-07-25T05:39:47.405Z,14672
2017-07-25T05:40:57.462Z,14300
2017-07-25T05:42:07.846Z,14460
2017-07-25T05:43:18.213Z,14268
2017-07-25T05:44:28.243Z,14500
2017-07-25T05:45:38.280Z,14492
2017-07-25T05:46:48.630Z,14364
2017-07-25T05:47:58.972Z,14420
2017-07-25T05:49:09.311Z,14368
2017-07-25T05:50:19.667Z,14312
2017-07-25T05:51:29.706Z,14316
2017-07-25T05:52:39.741Z,14096
2017-07-25T05:53:50.115Z,13948
2017-07-25T05:55:00.443Z,13780
2017-07-25T05:56:10.161Z,13800
2017-07-25T05:57:20.520Z,13336
2017-07-25T05:58:30.865Z,13368
2017-07-25T05:59:40.945Z,13500
2017-07-25T06:00:51.317Z,13540
2017-07-25T06:02:01.647Z,13748
2017-07-25T06:03:11.996Z,12444
2017-07-25T06:04:22.352Z,11708
2017-07-25T06:05:32.740Z,12144
2017-07-25T06:06:42.776Z,13256
2017-07-25T06:07:53.142Z,13176
2017-07-25T06:09:03.487Z,13128
2017-07-25T06:10:13.826Z,13232
2017-07-25T06:11:23.908Z,13152
2017-07-25T06:12:34.276Z,13040
2017-07-25T06:13:44.615Z,12856
2017-07-25T06:14:54.963Z,11060
2017-07-25T06:16:05.314Z,7068
2017-07-25T06:17:15.392Z,4532
2017-07-25T06:18:25.428Z,4572
2017-07-25T06:19:35.146Z,4508
2017-07-25T06:20:45.168Z,4564
2017-07-25T06:21:55.203Z,4792
2017-07-25T06:23:05.310Z,5088
2017-07-25T06:24:14.728Z,5784
2017-07-25T06:25:25.089Z,6932
2017-07-25T06:26:35.449Z,6896
2017-07-25T06:27:45.483Z,7040
2017-07-25T06:28:55.870Z,7100
2017-07-25T06:30:05.582Z,7024
2017-07-25T06:31:15.629Z,6852
2017-07-25T06:32:25.991Z,6800
2017-07-25T06:33:36.344Z,6516
2017-07-25T06:34:46.088Z,6148
2017-07-25T06:35:56.677Z,5608
2017-07-25T06:37:06.721Z,5580
2017-07-25T06:38:17.075Z,5804
2017-07-25T06:39:27.421Z,6592
2017-07-25T06:40:37.824Z,7920
2017-07-25T06:41:47.888Z,8840
2017-07-25T06:42:57.935Z,8536
2017-07-25T06:44:08.288Z,8172
2017-07-25T06:45:18.633Z,8304
2017-07-25T06:46:29.029Z,7924
2017-07-25T06:47:39.394Z,8012
2017-07-25T06:48:49.731Z,8268
2017-07-25T06:50:00.077Z,8420
2017-07-25T06:51:10.423Z,8136
2017-07-25T06:52:20.507Z,7864
2017-07-25T06:53:30.893Z,7476
2017-07-25T06:54:40.939Z,7228
2017-07-25T06:55:51.306Z,7532
2017-07-25T06:57:01.349Z,7592
2017-07-25T06:58:11.439Z,7420
2017-07-25T06:59:21.799Z,7188
2017-07-25T07:00:32.159Z,7312
2017-07-25T07:01:42.194Z,7272
2017-07-25T07:02:52.552Z,4588
2017-07-25T07:04:02.647Z,6828
2017-07-25T07:05:12.995Z,6404
2017-07-25T07:06:22.716Z,5524
2017-07-25T07:07:32.759Z,5868
2017-07-25T07:08:42.803Z,5744
2017-07-25T07:09:53.203Z,5688
2017-07-25T07:11:03.269Z,5664
2017-07-25T07:12:13.323Z,5660
2017-07-25T07:13:23.661Z,5576
2017-07-25T07:14:34.021Z,5632
2017-07-25T07:15:44.413Z,5532
2017-07-25T07:16:54.753Z,5596
2017-07-25T07:18:05.109Z,5700
2017-07-25T07:19:15.151Z,5664
2017-07-25T07:20:25.224Z,5920
2017-07-25T07:21:35.415Z,6076
2017-07-25T07:22:45.774Z,6104
2017-07-25T07:23:56.115Z,6032
2017-07-25T07:25:06.500Z,5816
2017-07-25T07:26:16.868Z,5740
2017-07-25T07:27:27.218Z,5080
2017-07-25T07:28:37.277Z,5444
2017-07-25T07:29:47.628Z,5616
2017-07-25T07:30:57.984Z,5664
2017-07-25T07:32:08.333Z,5916
2017-07-25T07:33:18.695Z,6108
2017-07-25T07:34:29.043Z,6072
2017-07-25T07:35:39.390Z,6092
2017-07-25T07:36:49.733Z,6052
2017-07-25T07:37:59.470Z,5896
2017-07-25T07:39:09.550Z,5980
2017-07-25T07:40:19.884Z,6120
2017-07-25T07:41:30.215Z,5732
2017-07-25T07:42:39.952Z,6432
2017-07-25T07:43:50.311Z,6728
2017-07-25T07:45:00.386Z,6676
2017-07-25T07:46:10.420Z,6724
2017-07-25T07:47:20.777Z,6696
2017-07-25T07:48:31.116Z,6528
2017-07-25T07:49:41.149Z,6588
2017-07-25T07:50:51.557Z,6696
2017-07-25T07:52:01.930Z,6768
2017-07-25T07:53:12.276Z,6912
2017-07-25T07:54:22.648Z,7112
2017-07-25T07:55:32.695Z,7088
2017-07-25T07:56:43.056Z,7520
2017-07-25T07:57:52.769Z,7720
2017-07-25T07:59:02.826Z,6828
2017-07-25T08:00:13.183Z,6404
2017-07-25T08:01:23.562Z,7852
2017-07-25T08:02:33.972Z,8144
2017-07-25T08:03:44.319Z,8500
2017-07-25T08:04:54.349Z,7276
2017-07-25T08:06:04.407Z,6872
2017-07-25T08:07:14.460Z,6564
2017-07-25T08:08:24.873Z,6620
2017-07-25T08:09:35.225Z,7892
2017-07-25T08:10:44.969Z,8100
2017-07-25T08:11:55.001Z,8804
2017-07-25T08:13:05.043Z,9376
2017-07-25T08:14:15.445Z,9476
2017-07-25T08:15:25.469Z,7144
2017-07-25T08:16:35.840Z,7108
2017-07-25T08:17:46.211Z,8256
2017-07-25T08:18:56.589Z,7584
2017-07-25T08:20:06.697Z,7592
2017-07-25T08:21:16.754Z,6828
2017-07-25T08:22:27.100Z,6792
2017-07-25T08:23:37.451Z,7320
2017-07-25T08:24:47.166Z,7536
2017-07-25T08:25:57.560Z,7500
2017-07-25T08:27:07.917Z,7748
2017-07-25T08:28:18.296Z,7348
2017-07-25T08:29:28.661Z,8392
2017-07-25T08:30:39.041Z,7096
2017-07-25T08:31:49.440Z,6856
2017-07-25T08:32:59.787Z,6772
2017-07-25T08:34:09.817Z,9220
2017-07-25T08:35:20.160Z,7028
2017-07-25T08:36:30.202Z,8068
2017-07-25T08:37:40.298Z,7580
2017-07-25T08:38:50.642Z,9860
2017-07-25T08:40:01.001Z,9400
2017-07-25T08:41:10.739Z,7068
2017-07-25T08:42:20.771Z,7512
2017-07-25T08:43:30.864Z,9028
2017-07-25T08:44:41.220Z,7792
2017-07-25T08:45:51.568Z,6996
2017-07-25T08:47:01.938Z,6196
2017-07-25T08:48:12.306Z,6356
2017-07-25T08:49:22.712Z,6620
2017-07-25T08:50:33.088Z,8164
2017-07-25T08:51:43.470Z,5552
2017-07-25T08:52:53.804Z,5040
2017-07-25T08:54:04.177Z,5084
2017-07-25T08:55:14.581Z,5264
2017-07-25T08:56:24.632Z,5292
2017-07-25T08:57:34.373Z,4924
2017-07-25T08:58:44.406Z,5016
2017-07-25T08:59:54.749Z,5212
2017-07-25T09:01:05.115Z,5664
2017-07-25T09:02:15.133Z,6204
2017-07-25T09:03:25.471Z,6428
2017-07-25T09:04:35.500Z,6452
2017-07-25T09:05:45.857Z,6740
2017-07-25T09:06:55.929Z,8796
2017-07-25T09:08:06.289Z,10676
2017-07-25T09:09:16.345Z,8688
2017-07-25T09:10:26.682Z,8772
2017-07-25T09:11:37.049Z,8504
2017-07-25T09:12:47.410Z,8036
2017-07-25T09:13:57.746Z,7788
2017-07-25T09:15:08.110Z,7948
2017-07-25T09:16:18.473Z,7964
2017-07-25T09:17:28.525Z,7664
2017-07-25T09:18:38.621Z,6940
2017-07-25T09:19:48.975Z,6508
2017-07-25T09:20:59.335Z,6840
2017-07-25T09:22:09.745Z,7412
2017-07-25T09:23:20.126Z,7192
2017-07-25T09:24:30.500Z,6604
2017-07-25T09:25:40.856Z,7276
2017-07-25T09:26:51.272Z,11024
2017-07-25T09:28:00.697Z,8368
2017-07-25T09:29:11.086Z,7980
2017-07-25T09:30:21.513Z,8332
2017-07-25T09:31:31.886Z,8312
2017-07-25T09:32:42.264Z,7888
2017-07-25T09:33:52.621Z,7880
2017-07-25T09:35:02.990Z,8040
2017-07-25T09:36:13.332Z,9416
2017-07-25T09:37:22.756Z,9400
2017-07-25T09:38:32.817Z,7972
2017-07-25T09:39:43.185Z,10108
2017-07-25T09:40:52.909Z,9392
2017-07-25T09:42:03.327Z,5908
2017-07-25T09:43:13.731Z,5596
2017-07-25T09:44:23.476Z,5400
2017-07-25T09:45:33.840Z,5656
2017-07-25T09:46:44.205Z,5820
2017-07-25T09:47:54.568Z,6052
2017-07-25T09:49:04.611Z,6544
2017-07-25T09:50:14.963Z,10012
2017-07-25T09:51:25.322Z,7704
2017-07-25T09:52:35.694Z,10632
2017-07-25T09:53:46.104Z,11208
2017-07-25T09:54:56.472Z,10956
2017-07-25T09:56:06.851Z,10480
2017-07-25T09:57:17.223Z,10012
2017-07-25T09:58:27.584Z,10612
2017-07-25T09:59:37.997Z,10636
2017-07-25T10:00:48.348Z,10316
2017-07-25T10:01:58.381Z,10456
2017-07-25T10:03:08.122Z,9432
2017-07-25T10:04:18.488Z,9692
2017-07-25T10:05:28.847Z,10092
2017-07-25T10:06:39.217Z,7248
2017-07-25T10:07:49.581Z,7136
2017-07-25T10:08:59.647Z,9064
2017-07-25T10:10:10.031Z,11064
2017-07-25T10:11:20.133Z,8412
2017-07-25T10:12:30.517Z,9612
2017-07-25T10:13:40.891Z,10504
2017-07-25T10:14:51.300Z,8096
2017-07-25T10:16:01.702Z,7952
2017-07-25T10:17:12.286Z,9240
2017-07-25T10:18:22.870Z,7240
2017-07-25T10:19:33.798Z,7212
2017-07-25T10:20:45.052Z,8976
2017-07-25T10:21:55.741Z,8788
2017-07-25T10:23:06.150Z,8824
2017-07-25T10:24:16.511Z,8928
2017-07-25T10:25:26.900Z,9108
2017-07-25T10:26:37.292Z,9312
2017-07-25T10:27:47.350Z,9540
2017-07-25T10:28:57.761Z,9876
2017-07-25T10:30:07.516Z,10268
2017-07-25T10:31:17.898Z,8300
2017-07-25T10:32:27.964Z,8788
2017-07-25T10:33:38.330Z,11672
2017-07-25T10:34:48.457Z,8952
2017-07-25T10:35:58.504Z,9116
2017-07-25T10:37:08.872Z,10312
2017-07-25T10:38:19.222Z,10472
2017-07-25T10:39:29.251Z,10076
2017-07-25T10:40:39.347Z,9956
2017-07-25T10:41:49.716Z,9672
2017-07-25T10:43:00.080Z,9472
2017-07-25T10:44:10.421Z,9704
2017-07-25T10:45:20.787Z,10052
2017-07-25T10:46:31.208Z,10224
2017-07-25T10:47:41.258Z,9696
2017-07-25T10:48:51.598Z,9924
2017-07-25T10:50:01.344Z,9904
2017-07-25T10:51:11.706Z,9044
2017-07-25T10:52:21.842Z,9356
2017-07-25T10:53:31.872Z,11024
2017-07-25T10:54:42.231Z,11088
2017-07-25T10:55:52.593Z,11452
2017-07-25T10:57:02.676Z,10124
2017-07-25T10:58:12.771Z,11292
2017-07-25T10:59:23.128Z,11116
2017-07-25T11:00:33.176Z,11200
2017-07-25T11:01:43.538Z,10904
2017-07-25T11:02:53.908Z,11268
2017-07-25T11:04:04.318Z,11340
2017-07-25T11:05:14.353Z,11572
2017-07-25T11:06:24.715Z,12152
2017-07-25T11:07:34.772Z,12620
2017-07-25T11:08:45.145Z,11828
2017-07-25T11:09:55.241Z,12648
2017-07-25T11:11:05.616Z,11620
2017-07-25T11:12:15.979Z,12088
2017-07-25T11:13:26.339Z,11984
2017-07-25T11:14:36.376Z,11700
2017-07-25T11:15:46.777Z,10108
2017-07-25T11:16:57.138Z,11992
2017-07-25T11:18:07.198Z,11480
2017-07-25T11:19:17.555Z,12004
2017-07-25T11:20:27.911Z,12436
2017-07-25T11:21:38.282Z,12096
2017-07-25T11:22:48.358Z,11440
2017-07-25T11:23:58.406Z,10832
2017-07-25T11:25:08.461Z,11288
2017-07-25T11:26:18.838Z,12104
2017-07-25T11:27:29.254Z,13032
2017-07-25T11:28:39.626Z,13560
2017-07-25T11:29:49.979Z,13244
2017-07-25T11:31:00.023Z,13248
2017-07-25T11:32:10.384Z,13064
2017-07-25T11:33:20.786Z,12948
2017-07-25T11:34:30.851Z,13216
2017-07-25T11:35:40.894Z,13500
2017-07-25T11:36:51.257Z,13652
2017-07-25T11:38:01.655Z,12460
2017-07-25T11:39:12.075Z,12488
2017-07-25T11:40:22.432Z,12960
2017-07-25T11:41:32.802Z,12712
2017-07-25T11:42:42.549Z,12272
2017-07-25T11:43:52.910Z,10960
2017-07-25T11:45:03.318Z,11016
2017-07-25T11:46:13.704Z,10332
2017-07-25T11:47:24.066Z,9708
2017-07-25T11:48:34.442Z,9284
2017-07-25T11:49:44.808Z,9252
2017-07-25T11:50:55.186Z,9724
2017-07-25T11:52:05.542Z,9864
2017-07-25T11:53:15.924Z,9448
2017-07-25T11:54:26.296Z,9060
2017-07-25T11:55:36.659Z,9732
2017-07-25T11:56:46.777Z,10576
2017-07-25T11:57:57.130Z,10336
2017-07-25T11:59:07.505Z,10352
2017-07-25T12:00:17.553Z,10240
2017-07-25T12:01:27.593Z,10704
2017-07-25T12:02:37.699Z,10916
2017-07-25T12:03:48.052Z,11464
2017-07-25T12:04:58.115Z,11604
2017-07-25T12:06:08.186Z,11636
2017-07-25T12:07:17.905Z,9880
2017-07-25T12:08:28.269Z,10696
2017-07-25T12:09:38.636Z,11156
2017-07-25T12:10:48.977Z,10984
2017-07-25T12:11:59.341Z,11088
2017-07-25T12:13:09.402Z,11240
2017-07-25T12:14:19.520Z,10984
2017-07-25T12:15:29.902Z,10316
2017-07-25T12:16:39.958Z,9284
2017-07-25T12:17:50.328Z,8732
2017-07-25T12:19:00.381Z,9204
2017-07-25T12:20:10.799Z,9752
2017-07-25T12:21:21.158Z,9096
2017-07-25T12:22:31.500Z,8432
2017-07-25T12:23:41.864Z,8460
2017-07-25T12:24:52.272Z,9172
2017-07-25T12:26:02.682Z,10132
2017-07-25T12:27:13.041Z,10332
2017-07-25T12:28:23.643Z,10124
2017-07-25T12:29:34.020Z,10376
2017-07-25T12:30:44.068Z,10712
2017-07-25T12:31:54.476Z,11080
2017-07-25T12:33:04.846Z,11240
2017-07-25T12:34:15.220Z,9592
2017-07-25T12:35:25.568Z,11656
2017-07-25T12:36:35.630Z,7848
2017-07-25T12:37:45.728Z,8400
2017-07-25T12:38:55.785Z,8836
2017-07-25T12:40:05.525Z,9816
2017-07-25T12:41:15.885Z,9884
2017-07-25T12:42:26.247Z,9420
2017-07-25T12:43:36.637Z,7996
2017-07-25T12:44:47.018Z,7488
2017-07-25T12:45:57.385Z,8608
2017-07-25T12:47:07.432Z,8036
2017-07-25T12:48:17.488Z,8924
2017-07-25T12:49:27.904Z,9304
2017-07-25T12:50:38.260Z,8092
2017-07-25T12:51:48.309Z,6912
2017-07-25T12:52:58.680Z,6668
2017-07-25T12:54:09.053Z,5576
2017-07-25T12:55:19.143Z,7692
2017-07-25T12:56:29.502Z,10056
2017-07-25T12:57:39.869Z,10156
2017-07-25T12:58:50.228Z,10024
2017-07-25T13:00:00.587Z,7192
2017-07-25T13:01:10.702Z,5532
2017-07-25T13:02:21.054Z,8236
2017-07-25T13:03:31.413Z,9052
2017-07-25T13:04:40.828Z,5548
2017-07-25T13:05:51.194Z,9304
2017-07-25T13:07:01.571Z,8192
2017-07-25T13:08:11.972Z,7588
2017-07-25T13:09:22.329Z,4124
2017-07-25T13:10:32.371Z,8164
2017-07-25T13:11:42.735Z,8288
2017-07-25T13:12:53.178Z,7432
2017-07-25T13:14:03.553Z,8000
2017-07-25T13:15:13.934Z,7168
2017-07-25T13:16:24.313Z,7652
2017-07-25T13:17:34.671Z,7948
2017-07-25T13:18:45.090Z,7876
2017-07-25T13:19:55.461Z,7820
2017-07-25T13:21:05.878Z,7896
2017-07-25T13:22:16.226Z,7996
2017-07-25T13:23:26.272Z,7820
2017-07-25T13:24:36.328Z,7624
2017-07-25T13:25:46.429Z,7540
2017-07-25T13:26:56.792Z,7652
2017-07-25T13:28:07.167Z,7644
2017-07-25T13:29:17.569Z,7560
2017-07-25T13:30:27.968Z,7452
2017-07-25T13:31:38.342Z,7028
2017-07-25T13:32:48.715Z,6660
2017-07-25T13:33:58.975Z,4580
2017-07-25T13:35:09.049Z,4244
2017-07-25T13:36:19.489Z,4304
2017-07-25T13:37:29.863Z,4432
2017-07-25T13:38:40.259Z,4988
2017-07-25T13:39:50.649Z,5900
2017-07-25T13:41:00.451Z,6932
2017-07-25T13:42:10.888Z,6628
2017-07-25T13:43:21.286Z,5792
2017-07-25T13:44:31.688Z,4340
2017-07-25T13:45:42.057Z,4664
2017-07-25T13:46:52.429Z,5944
2017-07-25T13:48:02.883Z,6636
2017-07-25T13:49:12.952Z,6428
2017-07-25T13:50:23.357Z,4592
2017-07-25T13:51:33.838Z,4624
2017-07-25T13:52:44.204Z,4368
2017-07-25T13:53:54.649Z,5272
2017-07-25T13:55:04.715Z,7256
2017-07-25T13:56:14.506Z,4200
2017-07-25T13:57:24.869Z,4460
2017-07-25T13:58:34.966Z,7780
2017-07-25T13:59:45.399Z,6924
2017-07-25T14:00:55.781Z,8536
2017-07-25T14:02:06.193Z,6108
2017-07-25T14:03:16.568Z,8180
2017-07-25T14:04:26.396Z,8600
2017-07-25T14:05:36.532Z,8320
2017-07-25T14:06:46.597Z,8088
2017-07-25T14:07:56.667Z,8308
2017-07-25T14:09:07.039Z,8564
2017-07-25T14:10:17.455Z,8308
2017-07-25T14:11:27.586Z,8112
2017-07-25T14:12:37.745Z,8108
2017-07-25T14:13:48.163Z,8060
2017-07-25T14:14:58.519Z,7720
2017-07-25T14:16:08.907Z,7288
2017-07-25T14:17:19.355Z,7072
2017-07-25T14:18:29.729Z,6880
2017-07-25T14:19:40.094Z,6824
2017-07-25T14:20:50.133Z,6808
2017-07-25T14:21:59.914Z,6728
2017-07-25T14:23:10.313Z,6648
2017-07-25T14:24:20.761Z,3152
2017-07-25T14:25:30.798Z,3204
2017-07-25T14:26:41.176Z,6348
2017-07-25T14:27:51.580Z,6312
2017-07-25T14:29:01.996Z,6572
2017-07-25T14:30:12.363Z,6380
2017-07-25T14:31:22.762Z,6272
2017-07-25T14:32:32.802Z,6172
2017-07-25T14:33:43.170Z,6096
2017-07-25T14:34:53.268Z,6056
2017-07-25T14:36:03.336Z,6112
2017-07-25T14:37:13.690Z,3068
2017-07-25T14:38:24.078Z,3152
2017-07-25T14:39:34.462Z,6416
2017-07-25T14:40:44.600Z,6340
2017-07-25T14:41:54.950Z,6252
2017-07-25T14:43:05.312Z,6328
2017-07-25T14:44:15.691Z,6284
2017-07-25T14:45:25.783Z,6032
2017-07-25T14:46:36.208Z,5968
2017-07-25T14:47:46.280Z,5920
2017-07-25T14:48:56.026Z,5124
2017-07-25T14:50:06.091Z,5812
2017-07-25T14:51:16.449Z,5800
2017-07-25T14:52:26.901Z,5772
2017-07-25T14:53:37.329Z,5800
2017-07-25T14:54:47.701Z,5968
2017-07-25T14:55:58.136Z,5920
2017-07-25T14:57:08.493Z,5884
2017-07-25T14:58:18.847Z,5908
2017-07-25T14:59:29.254Z,6016
2017-07-25T15:00:39.660Z,6216
2017-07-25T15:01:50.030Z,6412
2017-07-25T15:03:00.422Z,6528
2017-07-25T15:04:10.945Z,6800
2017-07-25T15:05:21.044Z,7272
2017-07-25T15:06:31.453Z,7540
2017-07-25T15:07:41.846Z,7476
2017-07-25T15:08:51.892Z,7276
2017-07-25T15:10:02.318Z,7060
2017-07-25T15:11:12.680Z,6632
2017-07-25T15:12:23.046Z,6208
2017-07-25T15:13:33.406Z,5920
2017-07-25T15:14:43.839Z,5660
2017-07-25T15:15:54.325Z,5452
2017-07-25T15:17:04.700Z,5328
2017-07-25T15:18:14.758Z,5236
2017-07-25T15:19:25.132Z,5196
2017-07-25T15:20:35.525Z,5180
2017-07-25T15:21:45.304Z,5152
2017-07-25T15:22:55.688Z,5160
2017-07-25T15:24:06.065Z,5140
2017-07-25T15:25:16.438Z,5112
2017-07-25T15:26:26.799Z,5108
2017-07-25T15:27:37.187Z,5092
2017-07-25T15:28:47.577Z,5024
2017-07-25T15:29:57.966Z,5000
2017-07-25T15:31:08.433Z,4984
2017-07-25T15:32:18.793Z,4988
2017-07-25T15:33:29.196Z,4948
2017-07-25T15:34:39.562Z,4944
2017-07-25T15:35:49.935Z,4944
2017-07-25T15:37:00.004Z,4964
2017-07-25T15:38:10.376Z,4972
2017-07-25T15:39:20.475Z,4948
2017-07-25T15:40:30.527Z,4880
2017-07-25T15:41:40.947Z,4816
2017-07-25T15:42:51.358Z,4756
2017-07-25T15:44:01.761Z,4812
2017-07-25T15:45:12.177Z,4800
2017-07-25T15:46:22.595Z,4808
2017-07-25T15:47:32.939Z,4756
2017-07-25T15:48:43.307Z,4776
2017-07-25T15:49:53.743Z,4788
2017-07-25T15:51:04.168Z,4828
2017-07-25T15:52:14.510Z,4800
2017-07-25T15:53:24.957Z,4748
2017-07-25T15:54:35.319Z,4760
2017-07-25T15:55:45.701Z,4776
2017-07-25T15:56:56.148Z,4740
2017-07-25T15:58:06.515Z,4732
2017-07-25T15:59:16.873Z,4740
2017-07-25T16:00:27.245Z,4708
2017-07-25T16:01:37.286Z,4676
2017-07-25T16:02:47.750Z,4600
2017-07-25T16:03:57.841Z,4496
2017-07-25T16:05:08.219Z,4436
2017-07-25T16:06:18.597Z,4376
2017-07-25T16:07:28.688Z,4316
2017-07-25T16:08:39.124Z,4276
2017-07-25T16:09:49.499Z,4216
2017-07-25T16:10:59.283Z,4180
2017-07-25T16:12:09.665Z,4112
2017-07-25T16:13:19.715Z,4116
2017-07-25T16:14:30.160Z,4048
2017-07-25T16:15:40.237Z,4016
2017-07-25T16:16:50.622Z,3964
2017-07-25T16:18:00.995Z,3948